sensor_id;sensor_type;location;lat;lon;timestamp;pressure;altitude;pressure_sealevel;temperature;humidity
22440;BME280;11387;51.612;7.210;2022-11-20T00:01:12;100462.13;;;-4.23;86.35
22440;BME280;11387;51.612;7.210;2022-11-20T00:03:41;100462.13;;;-4.23;86.20
22440;BME280;11387;51.612;7.210;2022-11-20T00:06:11;100457.00;;;-4.24;86.46
22440;BME280;11387;51.612;7.210;2022-11-20T00:08:39;100456.19;;;-4.31;86.11
22440;BME280;11387;51.612;7.210;2022-11-20T00:11:07;100452.91;;;-4.33;86.53
22440;BME280;11387;51.612;7.210;2022-11-20T00:13:42;100452.69;;;-4.38;86.42
22440;BME280;11387;51.612;7.210;2022-11-20T00:16:10;100443.66;;;-4.37;86.69
22440;BME280;11387;51.612;7.210;2022-11-20T00:18:39;100451.88;;;-4.39;86.78
22440;BME280;11387;51.612;7.210;2022-11-20T00:21:11;100444.06;;;-4.47;86.88
22440;BME280;11387;51.612;7.210;2022-11-20T00:23:39;100450.63;;;-4.50;87.14
22440;BME280;11387;51.612;7.210;2022-11-20T00:26:09;100450.63;;;-4.50;87.32
22440;BME280;11387;51.612;7.210;2022-11-20T00:28:37;100449.59;;;-4.49;87.56
22440;BME280;11387;51.612;7.210;2022-11-20T00:31:06;100444.88;;;-4.47;87.73
22440;BME280;11387;51.612;7.210;2022-11-20T00:33:34;100446.53;;;-4.46;87.49
22440;BME280;11387;51.612;7.210;2022-11-20T00:36:03;100445.69;;;-4.53;87.67
22440;BME280;11387;51.612;7.210;2022-11-20T00:38:33;100445.69;;;-4.46;88.04
22440;BME280;11387;51.612;7.210;2022-11-20T00:41:02;100454.75;;;-4.34;87.92
22440;BME280;11387;51.612;7.210;2022-11-20T00:43:30;100450.44;;;-4.42;87.39
22440;BME280;11387;51.612;7.210;2022-11-20T00:45:58;100450.22;;;-4.47;87.72
22440;BME280;11387;51.612;7.210;2022-11-20T00:48:26;100444.69;;;-4.38;87.47
22440;BME280;11387;51.612;7.210;2022-11-20T00:50:55;100441.59;;;-4.49;87.55
22440;BME280;11387;51.612;7.210;2022-11-20T00:53:23;100438.91;;;-4.55;87.56
22440;BME280;11387;51.612;7.210;2022-11-20T00:55:56;100441.97;;;-4.58;87.89
22440;BME280;11387;51.612;7.210;2022-11-20T00:58:25;100442.19;;;-4.66;87.81
22440;BME280;11387;51.612;7.210;2022-11-20T01:00:53;100446.09;;;-4.69;87.63
22440;BME280;11387;51.612;7.210;2022-11-20T01:03:21;100443.25;;;-4.61;88.11
22440;BME280;11387;51.612;7.210;2022-11-20T01:05:52;100443.03;;;-4.66;88.30
22440;BME280;11387;51.612;7.210;2022-11-20T01:08:20;100439.34;;;-4.65;88.50
22440;BME280;11387;51.612;7.210;2022-11-20T01:10:48;100438.53;;;-4.59;88.59
22440;BME280;11387;51.612;7.210;2022-11-20T01:13:17;100437.91;;;-4.48;88.52
22440;BME280;11387;51.612;7.210;2022-11-20T01:16:03;100436.84;;;-4.53;88.09
22440;BME280;11387;51.612;7.210;2022-11-20T01:18:31;100439.13;;;-4.57;88.23
22440;BME280;11387;51.612;7.210;2022-11-20T01:21:00;100439.94;;;-4.56;88.29
22440;BME280;11387;51.612;7.210;2022-11-20T01:23:32;100438.09;;;-4.69;88.07
22440;BME280;11387;51.612;7.210;2022-11-20T01:26:01;100433.56;;;-4.68;88.31
22440;BME280;11387;51.612;7.210;2022-11-20T01:28:30;100429.25;;;-4.69;88.33
22440;BME280;11387;51.612;7.210;2022-11-20T01:30:58;100425.16;;;-4.72;88.85
22440;BME280;11387;51.612;7.210;2022-11-20T01:33:26;100428.44;;;-4.70;88.73
22440;BME280;11387;51.612;7.210;2022-11-20T01:36:02;100423.53;;;-4.66;88.63
22440;BME280;11387;51.612;7.210;2022-11-20T01:38:30;100413.84;;;-4.74;88.59
22440;BME280;11387;51.612;7.210;2022-11-20T01:40:58;100414.28;;;-4.70;88.52
22440;BME280;11387;51.612;7.210;2022-11-20T01:43:27;100414.69;;;-4.67;88.78
22440;BME280;11387;51.612;7.210;2022-11-20T01:46:00;100409.75;;;-4.70;88.90
22440;BME280;11387;51.612;7.210;2022-11-20T01:48:30;100408.94;;;-4.51;88.50
22440;BME280;11387;51.612;7.210;2022-11-20T01:50:59;100412.25;;;-4.62;88.51
22440;BME280;11387;51.612;7.210;2022-11-20T01:53:29;100402.78;;;-4.51;88.37
22440;BME280;11387;51.612;7.210;2022-11-20T01:55:59;100398.91;;;-4.62;88.43
22440;BME280;11387;51.612;7.210;2022-11-20T01:58:28;100402.16;;;-4.66;88.63
22440;BME280;11387;51.612;7.210;2022-11-20T02:00:57;100398.88;;;-4.68;88.63
22440;BME280;11387;51.612;7.210;2022-11-20T02:03:27;100399.31;;;-4.65;89.02
22440;BME280;11387;51.612;7.210;2022-11-20T02:05:55;100400.94;;;-4.70;89.08
22440;BME280;11387;51.612;7.210;2022-11-20T02:08:25;100403.59;;;-4.77;88.94
22440;BME280;11387;51.612;7.210;2022-11-20T02:10:53;100400.09;;;-4.71;88.92
22440;BME280;11387;51.612;7.210;2022-11-20T02:13:21;100412.63;;;-4.78;89.27
22440;BME280;11387;51.612;7.210;2022-11-20T02:16:08;100418.56;;;-4.76;89.38
22440;BME280;11387;51.612;7.210;2022-11-20T02:18:37;100407.91;;;-4.76;89.23
22440;BME280;11387;51.612;7.210;2022-11-20T02:21:06;100405.84;;;-4.74;89.40
22440;BME280;11387;51.612;7.210;2022-11-20T02:23:36;100401.31;;;-4.80;89.41
22440;BME280;11387;51.612;7.210;2022-11-20T02:26:09;100395.19;;;-4.74;89.56
22440;BME280;11387;51.612;7.210;2022-11-20T02:28:39;100381.63;;;-4.79;89.50
22440;BME280;11387;51.612;7.210;2022-11-20T02:31:07;100380.78;;;-4.86;89.63
22440;BME280;11387;51.612;7.210;2022-11-20T02:33:35;100386.53;;;-4.96;89.82
22440;BME280;11387;51.612;7.210;2022-11-20T02:36:07;100390.66;;;-4.93;89.79
22440;BME280;11387;51.612;7.210;2022-11-20T02:38:36;100382.44;;;-4.85;89.95
22440;BME280;11387;51.612;7.210;2022-11-20T02:41:04;100382.44;;;-4.85;89.88
22440;BME280;11387;51.612;7.210;2022-11-20T02:43:33;100369.72;;;-4.83;89.94
22440;BME280;11387;51.612;7.210;2022-11-20T02:46:01;100369.72;;;-4.83;89.79
22440;BME280;11387;51.612;7.210;2022-11-20T02:48:28;100370.31;;;-4.81;89.80
22440;BME280;11387;51.612;7.210;2022-11-20T02:50:59;100370.94;;;-4.79;89.82
22440;BME280;11387;51.612;7.210;2022-11-20T02:53:27;100374.66;;;-4.80;89.81
22440;BME280;11387;51.612;7.210;2022-11-20T02:55:55;100373.81;;;-4.87;89.91
22440;BME280;11387;51.612;7.210;2022-11-20T02:58:23;100370.94;;;-4.86;90.19
22440;BME280;11387;51.612;7.210;2022-11-20T03:00:53;100368.06;;;-4.84;90.15
22440;BME280;11387;51.612;7.210;2022-11-20T03:03:21;100367.69;;;-4.68;89.83
22440;BME280;11387;51.612;7.210;2022-11-20T03:05:49;100375.47;;;-4.80;89.79
22440;BME280;11387;51.612;7.210;2022-11-20T03:08:16;100371.34;;;-4.89;89.59
22440;BME280;11387;51.612;7.210;2022-11-20T03:10:44;100369.50;;;-4.88;89.88
22440;BME280;11387;51.612;7.210;2022-11-20T03:13:12;100367.47;;;-4.93;90.09
22440;BME280;11387;51.612;7.210;2022-11-20T03:15:40;100369.31;;;-4.93;90.10
22440;BME280;11387;51.612;7.210;2022-11-20T03:18:09;100369.31;;;-5.00;90.06
22440;BME280;11387;51.612;7.210;2022-11-20T03:20:37;100355.97;;;-4.93;90.07
22440;BME280;11387;51.612;7.210;2022-11-20T03:23:05;100360.28;;;-4.92;90.52
22440;BME280;11387;51.612;7.210;2022-11-20T03:25:33;100360.28;;;-4.92;90.54
22440;BME280;11387;51.612;7.210;2022-11-20T03:28:02;100359.06;;;-4.96;90.64
22440;BME280;11387;51.612;7.210;2022-11-20T03:30:30;100356.78;;;-4.99;90.52
22440;BME280;11387;51.612;7.210;2022-11-20T03:32:59;100351.66;;;-4.94;90.55
22440;BME280;11387;51.612;7.210;2022-11-20T03:35:28;100351.03;;;-4.96;90.50
22440;BME280;11387;51.612;7.210;2022-11-20T03:37:56;100355.34;;;-4.95;90.50
22440;BME280;11387;51.612;7.210;2022-11-20T03:40:24;100352.91;;;-4.90;90.68
22440;BME280;11387;51.612;7.210;2022-11-20T03:42:52;100351.06;;;-4.90;90.75
22440;BME280;11387;51.612;7.210;2022-11-20T03:45:20;100356.59;;;-4.98;90.73
22440;BME280;11387;51.612;7.210;2022-11-20T03:47:48;100348.78;;;-4.99;90.89
22440;BME280;11387;51.612;7.210;2022-11-20T03:50:16;100352.69;;;-4.95;90.50
22440;BME280;11387;51.612;7.210;2022-11-20T03:52:46;100356.38;;;-5.03;90.80
22440;BME280;11387;51.612;7.210;2022-11-20T03:55:14;100348.38;;;-5.03;90.87
22440;BME280;11387;51.612;7.210;2022-11-20T03:57:41;100350.41;;;-5.12;90.83
22440;BME280;11387;51.612;7.210;2022-11-20T04:00:10;100337.25;;;-5.13;91.04
22440;BME280;11387;51.612;7.210;2022-11-20T04:02:38;100333.38;;;-5.11;90.95
22440;BME280;11387;51.612;7.210;2022-11-20T04:05:06;100332.75;;;-5.13;91.16
22440;BME280;11387;51.612;7.210;2022-11-20T04:07:34;100341.56;;;-5.19;91.09
22440;BME280;11387;51.612;7.210;2022-11-20T04:10:04;100333.56;;;-5.19;91.11
22440;BME280;11387;51.612;7.210;2022-11-20T04:12:32;100330.31;;;-5.07;91.15
22440;BME280;11387;51.612;7.210;2022-11-20T04:15:01;100323.72;;;-5.18;91.00
22440;BME280;11387;51.612;7.210;2022-11-20T04:17:29;100327.81;;;-5.16;91.20
22440;BME280;11387;51.612;7.210;2022-11-20T04:19:57;100329.47;;;-5.21;90.92
22440;BME280;11387;51.612;7.210;2022-11-20T04:22:25;100329.28;;;-5.20;91.06
22440;BME280;11387;51.612;7.210;2022-11-20T04:24:53;100326.81;;;-5.15;91.18
22440;BME280;11387;51.612;7.210;2022-11-20T04:27:22;100321.28;;;-5.20;91.13
22440;BME280;11387;51.612;7.210;2022-11-20T04:29:50;100320.44;;;-5.14;91.26
22440;BME280;11387;51.612;7.210;2022-11-20T04:32:18;100330.28;;;-5.14;91.23
22440;BME280;11387;51.612;7.210;2022-11-20T04:34:47;100331.09;;;-5.14;91.23
22440;BME280;11387;51.612;7.210;2022-11-20T04:37:15;100336.88;;;-5.10;91.33
22440;BME280;11387;51.612;7.210;2022-11-20T04:39:43;100331.53;;;-5.10;91.24
22440;BME280;11387;51.612;7.210;2022-11-20T04:42:11;100332.78;;;-4.99;91.63
22440;BME280;11387;51.612;7.210;2022-11-20T04:44:59;100337.28;;;-4.80;92.08
22440;BME280;11387;51.612;7.210;2022-11-20T04:47:27;100347.34;;;-4.69;92.33
22440;BME280;11387;51.612;7.210;2022-11-20T04:49:55;100341.19;;;-4.63;92.73
22440;BME280;11387;51.612;7.210;2022-11-20T04:52:23;100335.63;;;-4.55;92.80
22440;BME280;11387;51.612;7.210;2022-11-20T04:54:51;100331.91;;;-4.41;92.64
22440;BME280;11387;51.612;7.210;2022-11-20T04:57:20;100331.06;;;-4.28;92.87
22440;BME280;11387;51.612;7.210;2022-11-20T04:59:47;100328.38;;;-4.21;92.60
22440;BME280;11387;51.612;7.210;2022-11-20T05:02:17;100333.63;;;-3.95;91.96
22440;BME280;11387;51.612;7.210;2022-11-20T05:04:45;100334.63;;;-3.83;91.07
22440;BME280;11387;51.612;7.210;2022-11-20T05:07:13;100324.97;;;-3.84;90.36
22440;BME280;11387;51.612;7.210;2022-11-20T05:09:41;100333.56;;;-3.75;90.04
22440;BME280;11387;51.612;7.210;2022-11-20T05:12:09;100336.81;;;-3.66;89.89
22440;BME280;11387;51.612;7.210;2022-11-20T05:14:37;100337.78;;;-3.54;89.92
22440;BME280;11387;51.612;7.210;2022-11-20T05:17:05;100339.59;;;-3.42;89.67
22440;BME280;11387;51.612;7.210;2022-11-20T05:19:34;100336.03;;;-3.35;89.21
22440;BME280;11387;51.612;7.210;2022-11-20T05:22:03;100334.34;;;-3.30;89.13
22440;BME280;11387;51.612;7.210;2022-11-20T05:24:31;100339.66;;;-3.23;88.89
22440;BME280;11387;51.612;7.210;2022-11-20T05:26:59;100338.00;;;-3.18;89.03
22440;BME280;11387;51.612;7.210;2022-11-20T05:29:27;100338.34;;;-3.08;88.92
22440;BME280;11387;51.612;7.210;2022-11-20T05:31:55;100332.72;;;-2.99;88.54
22440;BME280;11387;51.612;7.210;2022-11-20T05:34:23;100337.03;;;-2.98;88.20
22440;BME280;11387;51.612;7.210;2022-11-20T05:36:52;100324.84;;;-2.94;87.97
22440;BME280;11387;51.612;7.210;2022-11-20T05:39:20;100329.50;;;-2.83;87.94
22440;BME280;11387;51.612;7.210;2022-11-20T05:41:49;100323.94;;;-2.82;87.14
22440;BME280;11387;51.612;7.210;2022-11-20T05:44:37;100326.78;;;-2.77;87.14
22440;BME280;11387;51.612;7.210;2022-11-20T05:47:05;100327.16;;;-2.73;87.79
22440;BME280;11387;51.612;7.210;2022-11-20T05:49:33;100324.94;;;-2.76;87.32
22440;BME280;11387;51.612;7.210;2022-11-20T05:52:02;100333.78;;;-2.76;87.95
22440;BME280;11387;51.612;7.210;2022-11-20T05:54:30;100336.06;;;-2.79;88.23
22440;BME280;11387;51.612;7.210;2022-11-20T05:56:58;100336.50;;;-2.82;87.96
22440;BME280;11387;51.612;7.210;2022-11-20T05:59:26;100327.44;;;-2.81;88.73
22440;BME280;11387;51.612;7.210;2022-11-20T06:01:54;100319.03;;;-2.85;88.60
22440;BME280;11387;51.612;7.210;2022-11-20T06:04:22;100320.53;;;-2.95;88.34
22440;BME280;11387;51.612;7.210;2022-11-20T06:06:50;100315.13;;;-3.14;88.27
22440;BME280;11387;51.612;7.210;2022-11-20T06:09:19;100320.56;;;-3.27;88.69
22440;BME280;11387;51.612;7.210;2022-11-20T06:11:48;100325.13;;;-3.34;88.97
22440;BME280;11387;51.612;7.210;2022-11-20T06:14:16;100323.31;;;-3.40;89.57
22440;BME280;11387;51.612;7.210;2022-11-20T06:16:44;100318.00;;;-3.47;89.66
22440;BME280;11387;51.612;7.210;2022-11-20T06:19:12;100325.25;;;-3.54;89.83
22440;BME280;11387;51.612;7.210;2022-11-20T06:21:40;100321.34;;;-3.58;90.17
22440;BME280;11387;51.612;7.210;2022-11-20T06:24:08;100318.88;;;-3.59;90.86
22440;BME280;11387;51.612;7.210;2022-11-20T06:26:38;100329.13;;;-3.50;90.86
22440;BME280;11387;51.612;7.210;2022-11-20T06:29:06;100321.28;;;-3.45;91.61
22440;BME280;11387;51.612;7.210;2022-11-20T06:31:34;100326.59;;;-3.38;91.55
22440;BME280;11387;51.612;7.210;2022-11-20T06:34:04;100329.28;;;-3.38;91.55
22440;BME280;11387;51.612;7.210;2022-11-20T06:36:32;100323.31;;;-3.40;91.23
22440;BME280;11387;51.612;7.210;2022-11-20T06:39:00;100324.00;;;-3.51;90.82
22440;BME280;11387;51.612;7.210;2022-11-20T06:41:28;100328.38;;;-3.63;90.77
22440;BME280;11387;51.612;7.210;2022-11-20T06:43:57;100322.69;;;-3.74;90.42
22440;BME280;11387;51.612;7.210;2022-11-20T06:46:25;100325.38;;;-3.87;90.14
22440;BME280;11387;51.612;7.210;2022-11-20T06:48:53;100325.19;;;-3.92;91.04
22440;BME280;11387;51.612;7.210;2022-11-20T06:51:21;100331.78;;;-3.94;91.04
22440;BME280;11387;51.612;7.210;2022-11-20T06:53:49;100332.78;;;-3.89;91.26
22440;BME280;11387;51.612;7.210;2022-11-20T06:56:17;100337.19;;;-4.01;91.16
22440;BME280;11387;51.612;7.210;2022-11-20T06:58:45;100340.25;;;-4.04;91.12
22440;BME280;11387;51.612;7.210;2022-11-20T07:01:14;100340.84;;;-3.95;91.42
22440;BME280;11387;51.612;7.210;2022-11-20T07:03:43;100330.94;;;-3.88;91.87
22440;BME280;11387;51.612;7.210;2022-11-20T07:06:17;100340.00;;;-3.96;91.92
22440;BME280;11387;51.612;7.210;2022-11-20T07:08:45;100340.00;;;-3.96;91.67
22440;BME280;11387;51.612;7.210;2022-11-20T07:11:13;100343.72;;;-3.97;91.90
22440;BME280;11387;51.612;7.210;2022-11-20T07:13:41;100352.19;;;-4.00;92.10
22440;BME280;11387;51.612;7.210;2022-11-20T07:16:10;100346.63;;;-3.98;91.99
22440;BME280;11387;51.612;7.210;2022-11-20T07:18:39;100347.00;;;-3.95;92.44
22440;BME280;11387;51.612;7.210;2022-11-20T07:21:14;100342.56;;;-3.63;92.52
22440;BME280;11387;51.612;7.210;2022-11-20T07:23:42;100350.22;;;-3.35;93.48
22440;BME280;11387;51.612;7.210;2022-11-20T07:26:10;100359.47;;;-3.31;93.32
22440;BME280;11387;51.612;7.210;2022-11-20T07:28:38;100362.25;;;-3.13;92.56
22440;BME280;11387;51.612;7.210;2022-11-20T07:31:06;100365.00;;;-2.94;92.02
22440;BME280;11387;51.612;7.210;2022-11-20T07:33:34;100365.00;;;-2.94;90.75
22440;BME280;11387;51.612;7.210;2022-11-20T07:36:04;100362.31;;;-2.94;89.56
22440;BME280;11387;51.612;7.210;2022-11-20T07:38:32;100367.22;;;-2.60;89.70
22440;BME280;11387;51.612;7.210;2022-11-20T07:41:00;100361.94;;;-2.05;89.15
22440;BME280;11387;51.612;7.210;2022-11-20T07:43:28;100353.22;;;-1.64;87.87
22440;BME280;11387;51.612;7.210;2022-11-20T07:45:56;100359.16;;;-0.72;85.48
22440;BME280;11387;51.612;7.210;2022-11-20T07:48:24;100354.94;;;0.25;79.69
22440;BME280;11387;51.612;7.210;2022-11-20T07:50:53;100353.19;;;1.88;74.15
22440;BME280;11387;51.612;7.210;2022-11-20T07:53:22;100345.47;;;3.11;68.71
22440;BME280;11387;51.612;7.210;2022-11-20T07:55:50;100351.53;;;4.50;65.42
22440;BME280;11387;51.612;7.210;2022-11-20T07:58:19;100358.50;;;5.79;60.67
22440;BME280;11387;51.612;7.210;2022-11-20T08:00:47;100357.94;;;6.77;57.67
22440;BME280;11387;51.612;7.210;2022-11-20T08:03:15;100348.47;;;7.53;51.82
22440;BME280;11387;51.612;7.210;2022-11-20T08:05:50;100345.50;;;8.07;49.09
22440;BME280;11387;51.612;7.210;2022-11-20T08:08:19;100348.44;;;8.39;47.93
22440;BME280;11387;51.612;7.210;2022-11-20T08:10:48;100343.94;;;8.91;47.94
22440;BME280;11387;51.612;7.210;2022-11-20T08:13:16;100334.22;;;9.55;45.01
22440;BME280;11387;51.612;7.210;2022-11-20T08:16:01;100340.84;;;10.41;44.45
22440;BME280;11387;51.612;7.210;2022-11-20T08:18:30;100332.72;;;11.36;43.12
22440;BME280;11387;51.612;7.210;2022-11-20T08:21:01;100324.72;;;11.93;39.98
22440;BME280;11387;51.612;7.210;2022-11-20T08:23:29;100325.66;;;12.10;38.34
22440;BME280;11387;51.612;7.210;2022-11-20T08:25:58;100321.41;;;12.04;37.82
22440;BME280;11387;51.612;7.210;2022-11-20T08:28:26;100316.28;;;12.60;38.08
22440;BME280;11387;51.612;7.210;2022-11-20T08:30:57;100321.22;;;13.32;36.04
22440;BME280;11387;51.612;7.210;2022-11-20T08:33:25;100328.88;;;14.37;34.26
22440;BME280;11387;51.612;7.210;2022-11-20T08:35:53;100321.16;;;14.89;32.58
22440;BME280;11387;51.612;7.210;2022-11-20T08:38:21;100319.47;;;15.18;32.45
22440;BME280;11387;51.612;7.210;2022-11-20T08:40:49;100319.81;;;14.95;32.62
22440;BME280;11387;51.612;7.210;2022-11-20T08:43:32;100320.41;;;15.22;32.42
22440;BME280;11387;51.612;7.210;2022-11-20T08:46:00;100320.34;;;15.84;31.08
22440;BME280;11387;51.612;7.210;2022-11-20T08:48:28;100323.75;;;16.75;30.42
22440;BME280;11387;51.612;7.210;2022-11-20T08:50:57;100313.94;;;17.70;29.43
22440;BME280;11387;51.612;7.210;2022-11-20T08:53:25;100307.69;;;17.61;28.24
22440;BME280;11387;51.612;7.210;2022-11-20T08:55:53;100300.41;;;17.12;28.65
22440;BME280;11387;51.612;7.210;2022-11-20T08:58:21;100308.69;;;17.12;28.80
22440;BME280;11387;51.612;7.210;2022-11-20T09:00:50;100318.19;;;16.63;28.92
22440;BME280;11387;51.612;7.210;2022-11-20T09:03:18;100325.63;;;17.79;27.43
22440;BME280;11387;51.612;7.210;2022-11-20T09:05:46;100317.06;;;17.28;28.23
22440;BME280;11387;51.612;7.210;2022-11-20T09:08:14;100315.47;;;18.46;26.48
22440;BME280;11387;51.612;7.210;2022-11-20T09:10:42;100309.19;;;19.00;26.25
22440;BME280;11387;51.612;7.210;2022-11-20T09:13:10;100321.78;;;19.32;25.39
22440;BME280;11387;51.612;7.210;2022-11-20T09:15:38;100326.53;;;18.46;25.63
22440;BME280;11387;51.612;7.210;2022-11-20T09:18:07;100319.50;;;13.82;31.92
22440;BME280;11387;51.612;7.210;2022-11-20T09:20:35;100317.31;;;13.50;32.96
22440;BME280;11387;51.612;7.210;2022-11-20T09:23:03;100318.78;;;14.79;31.93
22440;BME280;11387;51.612;7.210;2022-11-20T09:25:31;100313.53;;;15.81;31.19
22440;BME280;11387;51.612;7.210;2022-11-20T09:27:59;100311.00;;;18.10;27.85
22440;BME280;11387;51.612;7.210;2022-11-20T09:30:27;100308.06;;;20.01;25.65
22440;BME280;11387;51.612;7.210;2022-11-20T09:32:55;100298.28;;;21.12;23.74
22440;BME280;11387;51.612;7.210;2022-11-20T09:35:24;100291.09;;;22.12;22.80
22440;BME280;11387;51.612;7.210;2022-11-20T09:37:52;100292.50;;;22.39;22.17
22440;BME280;11387;51.612;7.210;2022-11-20T09:40:21;100279.03;;;23.10;21.55
22440;BME280;11387;51.612;7.210;2022-11-20T09:42:51;100285.66;;;22.81;21.25
22440;BME280;11387;51.612;7.210;2022-11-20T09:45:23;100280.06;;;22.81;21.68
22440;BME280;11387;51.612;7.210;2022-11-20T09:48:01;100291.34;;;23.02;21.60
22440;BME280;11387;51.612;7.210;2022-11-20T09:50:35;100278.34;;;22.66;21.87
22440;BME280;11387;51.612;7.210;2022-11-20T09:53:08;100280.19;;;21.96;22.45
22440;BME280;11387;51.612;7.210;2022-11-20T09:55:39;100277.13;;;21.34;23.32
22440;BME280;11387;51.612;7.210;2022-11-20T09:58:10;100285.09;;;20.27;24.31
22440;BME280;11387;51.612;7.210;2022-11-20T10:00:42;100274.28;;;17.81;27.14
22440;BME280;11387;51.612;7.210;2022-11-20T10:03:11;100284.78;;;15.16;31.00
22440;BME280;11387;51.612;7.210;2022-11-20T10:05:43;100268.34;;;12.66;35.51
22440;BME280;11387;51.612;7.210;2022-11-20T10:08:14;100263.81;;;11.42;38.24
22440;BME280;11387;51.612;7.210;2022-11-20T10:10:45;100274.28;;;11.71;39.26
22440;BME280;11387;51.612;7.210;2022-11-20T10:13:26;100275.41;;;11.17;39.82
22440;BME280;11387;51.612;7.210;2022-11-20T10:16:01;100272.09;;;10.84;40.49
22440;BME280;11387;51.612;7.210;2022-11-20T10:18:35;100275.38;;;14.17;35.61
22440;BME280;11387;51.612;7.210;2022-11-20T10:21:11;100273.56;;;14.80;34.23
22440;BME280;11387;51.612;7.210;2022-11-20T10:23:50;100261.47;;;15.47;32.49
22440;BME280;11387;51.612;7.210;2022-11-20T10:26:23;100258.53;;;13.89;34.66
22440;BME280;11387;51.612;7.210;2022-11-20T10:28:57;100254.16;;;12.07;37.60
22440;BME280;11387;51.612;7.210;2022-11-20T10:31:34;100263.47;;;11.89;38.70
22440;BME280;11387;51.612;7.210;2022-11-20T10:34:03;100251.97;;;12.18;38.27
22440;BME280;11387;51.612;7.210;2022-11-20T10:36:40;100255.31;;;11.22;40.03
22440;BME280;11387;51.612;7.210;2022-11-20T10:39:14;100244.34;;;8.75;45.76
22440;BME280;11387;51.612;7.210;2022-11-20T10:41:44;100248.06;;;7.17;50.40
22440;BME280;11387;51.612;7.210;2022-11-20T10:44:17;100244.81;;;6.81;51.42
22440;BME280;11387;51.612;7.210;2022-11-20T10:47:05;100253.47;;;5.74;55.53
22440;BME280;11387;51.612;7.210;2022-11-20T10:49:40;100247.84;;;5.40;56.73
22440;BME280;11387;51.612;7.210;2022-11-20T10:52:11;100249.22;;;5.07;58.55
22440;BME280;11387;51.612;7.210;2022-11-20T10:54:42;100248.13;;;4.98;59.64
22440;BME280;11387;51.612;7.210;2022-11-20T10:57:17;100245.16;;;5.15;59.09
22440;BME280;11387;51.612;7.210;2022-11-20T11:00:04;100241.06;;;4.92;60.51
22440;BME280;11387;51.612;7.210;2022-11-20T11:02:34;100233.47;;;5.40;59.53
22440;BME280;11387;51.612;7.210;2022-11-20T11:05:06;100229.66;;;5.46;59.01
22440;BME280;11387;51.612;7.210;2022-11-20T11:07:41;100231.84;;;5.03;60.36
22440;BME280;11387;51.612;7.210;2022-11-20T11:10:13;100237.25;;;5.29;59.86
22440;BME280;11387;51.612;7.210;2022-11-20T11:12:43;100228.31;;;5.23;60.09
22440;BME280;11387;51.612;7.210;2022-11-20T11:15:12;100226.16;;;5.15;60.36
22440;BME280;11387;51.612;7.210;2022-11-20T11:17:46;100223.72;;;5.03;61.10
22440;BME280;11387;51.612;7.210;2022-11-20T11:20:15;100213.41;;;4.70;62.10
22440;BME280;11387;51.612;7.210;2022-11-20T11:22:45;100210.69;;;4.55;62.99
22440;BME280;11387;51.612;7.210;2022-11-20T11:28:03;100206.91;;;5.12;61.63
22440;BME280;11387;51.612;7.210;2022-11-20T11:30:40;100198.19;;;5.40;61.21
22440;BME280;11387;51.612;7.210;2022-11-20T11:33:10;100199.00;;;5.30;60.45
22440;BME280;11387;51.612;7.210;2022-11-20T11:35:43;100196.06;;;4.91;62.02
22440;BME280;11387;51.612;7.210;2022-11-20T11:38:19;100184.16;;;4.87;62.29
22440;BME280;11387;51.612;7.210;2022-11-20T11:40:49;100182.50;;;4.96;62.54
22440;BME280;11387;51.612;7.210;2022-11-20T11:43:17;100180.06;;;5.00;62.02
22440;BME280;11387;51.612;7.210;2022-11-20T11:46:04;100183.06;;;5.08;62.08
22440;BME280;11387;51.612;7.210;2022-11-20T11:48:33;100170.84;;;5.01;62.66
22440;BME280;11387;51.612;7.210;2022-11-20T11:51:01;100166.53;;;4.80;63.03
22440;BME280;11387;51.612;7.210;2022-11-20T11:53:40;100162.47;;;4.62;64.21
22440;BME280;11387;51.612;7.210;2022-11-20T11:56:09;100153.25;;;4.63;63.90
22440;BME280;11387;51.612;7.210;2022-11-20T11:58:41;100161.63;;;5.17;62.76
22440;BME280;11387;51.612;7.210;2022-11-20T12:01:16;100155.13;;;5.88;60.81
22440;BME280;11387;51.612;7.210;2022-11-20T12:03:52;100162.88;;;6.20;59.30
22440;BME280;11387;51.612;7.210;2022-11-20T12:06:23;100152.09;;;6.43;59.04
22440;BME280;11387;51.612;7.210;2022-11-20T12:08:55;100156.22;;;5.92;59.45
22440;BME280;11387;51.612;7.210;2022-11-20T12:11:29;100145.38;;;5.82;60.47
22440;BME280;11387;51.612;7.210;2022-11-20T12:14:01;100137.91;;;5.53;60.75
22440;BME280;11387;51.612;7.210;2022-11-20T12:16:32;100139.63;;;5.24;62.43
22440;BME280;11387;51.612;7.210;2022-11-20T12:19:03;100137.00;;;4.78;63.66
22440;BME280;11387;51.612;7.210;2022-11-20T12:21:37;100133.19;;;4.89;63.89
22440;BME280;11387;51.612;7.210;2022-11-20T12:24:34;100127.78;;;4.84;64.21
22440;BME280;11387;51.612;7.210;2022-11-20T12:27:14;100129.38;;;5.11;64.14
22440;BME280;11387;51.612;7.210;2022-11-20T12:29:51;100110.31;;;5.31;63.73
22440;BME280;11387;51.612;7.210;2022-11-20T12:32:29;100110.56;;;5.39;63.35
22440;BME280;11387;51.612;7.210;2022-11-20T12:35:05;100110.94;;;4.92;63.10
22440;BME280;11387;51.612;7.210;2022-11-20T12:37:39;100101.22;;;4.76;64.53
22440;BME280;11387;51.612;7.210;2022-11-20T12:40:21;100095.53;;;4.72;65.00
22440;BME280;11387;51.612;7.210;2022-11-20T12:42:54;100101.25;;;4.35;65.96
22440;BME280;11387;51.612;7.210;2022-11-20T12:48:38;100094.72;;;4.11;67.38
22440;BME280;11387;51.612;7.210;2022-11-20T12:51:25;100089.03;;;4.07;67.72
22440;BME280;11387;51.612;7.210;2022-11-20T12:54:04;100103.53;;;3.56;69.59
22440;BME280;11387;51.612;7.210;2022-11-20T12:56:40;100090.78;;;3.46;69.85
22440;BME280;11387;51.612;7.210;2022-11-20T12:59:18;100090.25;;;3.49;69.70
22440;BME280;11387;51.612;7.210;2022-11-20T13:04:37;100084.84;;;3.54;70.07
22440;BME280;11387;51.612;7.210;2022-11-20T13:07:10;100073.97;;;3.34;70.77
22440;BME280;11387;51.612;7.210;2022-11-20T13:09:40;100072.00;;;3.19;71.73
22440;BME280;11387;51.612;7.210;2022-11-20T13:12:15;100069.09;;;3.31;72.00
22440;BME280;11387;51.612;7.210;2022-11-20T13:14:47;100059.91;;;3.32;72.49
22440;BME280;11387;51.612;7.210;2022-11-20T13:17:22;100052.28;;;3.24;73.11